Time;durP1;ratioP1;P1;durP2;ratioP2;P2;SDS_P1;SDS_P2;PMS_P1;PMS_P2;Temp;Humidity;BMP_temperature;BMP_pressure;BME280_temperature;BME280_humidity;BME280_pressure;Samples;Min_cycle;Max_cycle;Signal;HPM_P1;HPM_P2
2021/06/21 00:02:22;;;;;;;13.50;5.43;;;15.10;87.40;;;;;;5114521;28;20274;-86
2021/06/21 00:04:51;;;;;;;6.63;4.70;;;14.90;87.60;;;;;;5114478;28;20170;-86
2021/06/21 00:07:17;;;;;;;10.83;5.00;;;14.90;87.70;;;;;;5114439;28;20243;-86
2021/06/21 00:09:43;;;;;;;10.57;4.90;;;14.90;87.70;;;;;;5114247;28;20190;-86
2021/06/21 00:12:10;;;;;;;10.73;5.37;;;14.90;87.70;;;;;;5096153;28;20185;-86
2021/06/21 00:14:37;;;;;;;10.97;4.97;;;14.90;87.70;;;;;;5096132;28;20214;-86
2021/06/21 00:17:03;;;;;;;16.27;4.63;;;14.90;87.60;;;;;;5095936;28;20200;-86
2021/06/21 00:19:28;;;;;;;11.60;5.23;;;14.90;87.60;;;;;;5095912;28;20177;-86
2021/06/21 00:21:55;;;;;;;8.17;4.97;;;14.90;87.50;;;;;;5096006;28;20174;-86
2021/06/21 00:24:21;;;;;;;12.70;5.00;;;14.80;87.50;;;;;;5114127;28;20177;-86
2021/06/21 00:26:50;;;;;;;10.43;4.47;;;14.70;87.70;;;;;;5095891;28;20570;-87
2021/06/21 00:29:16;;;;;;;13.93;4.47;;;14.70;87.90;;;;;;5113955;28;20189;-86
2021/06/21 00:31:42;;;;;;;14.13;4.43;;;14.70;87.90;;;;;;5113996;28;20173;-86
2021/06/21 00:34:08;;;;;;;10.97;4.30;;;14.80;87.80;;;;;;5095719;28;20182;-86
2021/06/21 00:36:34;;;;;;;13.27;4.60;;;14.80;87.70;;;;;;5113867;28;20254;-86
2021/06/21 00:39:00;;;;;;;12.30;4.90;;;14.80;87.80;;;;;;5113880;28;20174;-86
2021/06/21 00:41:26;;;;;;;11.83;3.90;;;14.80;87.50;;;;;;5095727;28;20178;-86
2021/06/21 00:43:51;;;;;;;11.37;3.57;;;14.80;87.60;;;;;;5113885;28;20595;-86
2021/06/21 00:46:17;;;;;;;11.13;4.37;;;14.70;87.50;;;;;;5095526;28;20205;-85
2021/06/21 00:48:43;;;;;;;10.97;4.00;;;14.70;87.80;;;;;;5113942;28;20756;-86
2021/06/21 00:51:09;;;;;;;10.93;5.80;;;14.70;88.00;;;;;;5114034;28;20641;-86
2021/06/21 00:53:35;;;;;;;11.57;3.90;;;14.60;88.00;;;;;;5113773;28;20253;-86
2021/06/21 00:56:01;;;;;;;12.03;4.50;;;14.60;88.00;;;;;;5095425;28;20170;-86
2021/06/21 00:58:27;;;;;;;9.53;4.83;;;14.60;88.10;;;;;;5113547;28;20213;-86
2021/06/21 01:00:53;;;;;;;10.77;4.53;;;14.60;88.00;;;;;;5095457;28;20546;-86
2021/06/21 01:03:19;;;;;;;6.70;5.00;;;14.50;88.10;;;;;;5095515;28;20174;-86
2021/06/21 01:05:45;;;;;;;10.83;4.10;;;14.50;88.00;;;;;;5116207;28;20176;-86
2021/06/21 01:08:11;;;;;;;9.83;4.60;;;14.40;87.70;;;;;;5099430;28;20194;-86
2021/06/21 01:10:41;;;;;;;7.37;3.97;;;14.40;87.70;;;;;;5117868;28;20633;-86
2021/06/21 01:13:27;;;;;;;6.23;3.90;;;14.40;87.60;;;;;;5117826;28;20522;-86
2021/06/21 01:16:06;;;;;;;6.37;3.73;;;14.40;87.20;;;;;;5068955;28;20268;-86
2021/06/21 01:18:33;;;;;;;9.17;4.37;;;14.30;87.30;;;;;;5099378;28;20166;-85
2021/06/21 01:21:13;;;;;;;8.40;4.20;;;14.30;87.40;;;;;;5099406;28;20181;-85
2021/06/21 01:24:00;;;;;;;7.80;4.40;;;14.20;87.20;;;;;;5117620;28;20248;-86
2021/06/21 01:26:43;;;;;;;12.97;4.27;;;14.20;87.50;;;;;;5099181;28;20198;-85
2021/06/21 01:29:36;;;;;;;6.27;3.87;;;14.10;87.60;;;;;;5117511;28;20283;-86
2021/06/21 01:32:23;;;;;;;6.67;3.57;;;14.10;87.40;;;;;;5099186;28;20648;-86
2021/06/21 01:34:52;;;;;;;9.00;3.53;;;14.10;87.20;;;;;;5099123;28;20181;-85
2021/06/21 01:37:21;;;;;;;10.40;3.90;;;14.10;87.30;;;;;;5098871;28;20225;-86
2021/06/21 01:39:51;;;;;;;8.97;4.33;;;14.00;87.40;;;;;;5117368;28;20176;-86
2021/06/21 01:42:20;;;;;;;7.47;4.00;;;14.00;87.60;;;;;;5098963;28;20648;-86
2021/06/21 01:44:52;;;;;;;7.17;4.13;;;14.00;87.60;;;;;;5117204;28;20295;-86
2021/06/21 01:47:18;;;;;;;6.87;4.27;;;14.00;87.60;;;;;;5117142;28;20201;-86
2021/06/21 01:49:46;;;;;;;8.93;4.33;;;13.90;87.70;;;;;;5098742;28;20266;-86
2021/06/21 01:52:13;;;;;;;11.67;4.27;;;13.90;87.80;;;;;;5098795;28;20722;-86
2021/06/21 01:54:44;;;;;;;15.17;4.57;;;13.90;87.80;;;;;;5116951;28;20166;-86
2021/06/21 01:57:11;;;;;;;10.43;4.37;;;13.90;87.80;;;;;;5098709;28;20237;-86
2021/06/21 01:59:36;;;;;;;11.87;4.40;;;13.90;87.70;;;;;;5098638;28;20181;-86
2021/06/21 02:02:03;;;;;;;9.70;4.80;;;14.00;87.70;;;;;;5098650;28;20253;-86
2021/06/21 02:04:32;;;;;;;8.03;4.67;;;14.00;87.50;;;;;;5116778;28;20170;-86
2021/06/21 02:07:00;;;;;;;6.47;4.47;;;14.00;87.60;;;;;;5098370;28;20566;-85
2021/06/21 02:09:27;;;;;;;14.20;5.73;;;14.00;87.60;;;;;;5098342;28;20198;-86
2021/06/21 02:11:54;;;;;;;15.97;5.50;;;14.00;87.60;;;;;;5116635;28;20226;-86
2021/06/21 02:14:26;;;;;;;9.03;6.07;;;14.10;87.50;;;;;;5098319;28;20199;-86
2021/06/21 02:16:53;;;;;;;16.90;5.70;;;14.00;87.50;;;;;;5116108;28;20189;-86
2021/06/21 02:19:28;;;;;;;9.97;5.13;;;14.10;87.40;;;;;;5098231;28;20203;-86
2021/06/21 02:21:54;;;;;;;12.90;5.90;;;14.10;87.40;;;;;;5116492;28;20204;-86
2021/06/21 02:24:20;;;;;;;15.00;5.73;;;14.00;87.40;;;;;;5116426;28;20646;-86
2021/06/21 02:26:47;;;;;;;11.57;5.27;;;14.10;87.50;;;;;;5098053;28;20193;-86
2021/06/21 02:29:17;;;;;;;14.67;6.13;;;14.00;87.60;;;;;;5098044;28;20665;-86
2021/06/21 02:31:44;;;;;;;10.80;6.30;;;14.00;87.70;;;;;;5116301;28;20614;-86
2021/06/21 02:34:10;;;;;;;10.80;5.97;;;14.00;87.70;;;;;;5116470;28;20166;-86
2021/06/21 02:36:36;;;;;;;10.97;6.70;;;14.00;87.80;;;;;;5097857;28;20235;-86
2021/06/21 02:39:03;;;;;;;9.23;6.70;;;14.00;88.10;;;;;;5097829;28;20544;-86
2021/06/21 02:41:29;;;;;;;11.07;7.37;;;13.90;88.20;;;;;;5116077;28;20215;-86
2021/06/21 02:43:54;;;;;;;11.07;7.50;;;13.90;88.30;;;;;;5116079;28;20174;-86
2021/06/21 02:46:20;;;;;;;12.60;8.30;;;13.90;88.40;;;;;;5097743;28;20169;-85
2021/06/21 02:48:46;;;;;;;12.53;8.93;;;13.80;88.60;;;;;;5097601;28;20246;-85
2021/06/21 02:51:17;;;;;;;11.40;8.37;;;13.90;88.50;;;;;;5097620;28;20642;-86
2021/06/21 02:53:57;;;;;;;13.73;8.17;;;13.90;88.50;;;;;;5097615;28;20186;-86
2021/06/21 02:56:36;;;;;;;14.30;10.83;;;13.80;88.60;;;;;;5115858;28;20211;-85
2021/06/21 02:59:12;;;;;;;13.37;8.00;;;13.90;88.70;;;;;;5116032;28;20165;-86
2021/06/21 03:01:49;;;;;;;11.77;9.20;;;13.80;88.60;;;;;;5115788;28;20162;-86
2021/06/21 03:04:16;;;;;;;14.97;9.40;;;13.80;88.70;;;;;;5097511;28;20521;-86
2021/06/21 03:06:43;;;;;;;13.87;9.23;;;13.80;88.80;;;;;;5097342;28;20193;-86
2021/06/21 03:09:10;;;;;;;12.57;9.23;;;13.80;88.90;;;;;;5097276;28;20282;-86
2021/06/21 03:11:37;;;;;;;13.90;9.27;;;13.80;89.00;;;;;;5097302;28;20174;-86
2021/06/21 03:14:03;;;;;;;12.20;9.37;;;13.80;89.00;;;;;;5115392;28;20186;-86
2021/06/21 03:16:30;;;;;;;17.33;9.33;;;13.80;89.50;;;;;;5096995;28;20669;-86
2021/06/21 03:18:56;;;;;;;17.60;9.80;;;13.70;89.70;;;;;;5097038;28;20185;-85
2021/06/21 03:21:22;;;;;;;13.83;9.00;;;13.80;89.90;;;;;;5115280;28;20170;-86
2021/06/21 03:23:52;;;;;;;14.33;10.03;;;13.70;90.00;;;;;;5115495;28;20170;-86
2021/06/21 03:26:24;;;;;;;12.53;10.57;;;13.80;90.20;;;;;;5096765;28;20182;-85
2021/06/21 03:28:49;;;;;;;16.27;10.50;;;13.70;90.40;;;;;;5113975;28;20190;-85
2021/06/21 03:31:15;;;;;;;11.60;9.70;;;13.70;90.50;;;;;;5096782;28;20642;-85
2021/06/21 03:33:41;;;;;;;15.10;10.37;;;13.70;90.50;;;;;;5115021;28;20171;-85
2021/06/21 03:36:07;;;;;;;23.30;11.57;;;13.70;90.70;;;;;;5096701;28;20173;-84
2021/06/21 03:38:33;;;;;;;23.03;10.73;;;13.70;91.20;;;;;;5113734;28;20174;-85
2021/06/21 03:41:01;;;;;;;17.33;10.63;;;13.60;91.10;;;;;;5114840;28;20177;-85
2021/06/21 03:43:28;;;;;;;18.87;10.57;;;13.70;91.40;;;;;;5114781;28;20185;-85
2021/06/21 03:45:57;;;;;;;23.43;12.30;;;13.70;91.40;;;;;;5114811;28;20181;-85
2021/06/21 03:48:23;;;;;;;16.37;11.50;;;13.70;91.50;;;;;;5113251;28;20213;-85
2021/06/21 03:50:49;;;;;;;24.17;11.63;;;13.70;91.60;;;;;;5114941;28;20180;-85
2021/06/21 03:53:17;;;;;;;14.07;10.77;;;13.70;91.80;;;;;;5113425;28;20268;-85
2021/06/21 03:55:42;;;;;;;16.13;11.00;;;13.70;91.80;;;;;;5096191;28;20174;-85
2021/06/21 03:58:08;;;;;;;16.73;10.93;;;13.70;91.90;;;;;;5114330;28;20300;-85
2021/06/21 04:00:36;;;;;;;16.17;10.33;;;13.70;91.80;;;;;;5114396;28;20209;-85
2021/06/21 04:03:02;;;;;;;15.23;10.60;;;13.70;91.90;;;;;;5114666;28;20201;-85
2021/06/21 04:05:28;;;;;;;14.03;10.07;;;13.70;91.90;;;;;;5113009;28;20184;-86
2021/06/21 04:07:54;;;;;;;14.17;9.97;;;13.70;92.00;;;;;;5114310;28;20197;-86
2021/06/21 04:10:22;;;;;;;17.03;10.80;;;13.70;91.90;;;;;;5114204;28;20190;-86
2021/06/21 04:12:50;;;;;;;17.10;10.20;;;13.70;92.10;;;;;;5095962;28;20768;-86
2021/06/21 04:15:19;;;;;;;13.43;9.50;;;13.70;92.20;;;;;;5095926;28;20618;-86
2021/06/21 04:17:45;;;;;;;14.13;9.57;;;13.70;92.20;;;;;;5095794;28;20205;-87
2021/06/21 04:20:13;;;;;;;15.20;10.60;;;13.70;92.30;;;;;;5095895;28;20178;-87
2021/06/21 04:22:40;;;;;;;15.87;9.77;;;13.70;92.50;;;;;;5114080;28;20173;-87
2021/06/21 04:25:08;;;;;;;15.67;9.97;;;13.70;92.60;;;;;;5095765;28;20178;-86
2021/06/21 04:27:34;;;;;;;16.13;10.27;;;13.70;92.60;;;;;;5095652;28;20205;-86
2021/06/21 04:29:59;;;;;;;12.83;10.40;;;13.70;92.60;;;;;;5095605;28;20201;-86
2021/06/21 04:32:25;;;;;;;14.90;10.03;;;13.70;92.50;;;;;;5095775;28;20178;-87
2021/06/21 04:34:51;;;;;;;17.57;10.37;;;13.70;92.70;;;;;;5112705;28;20762;-87
2021/06/21 04:37:16;;;;;;;12.60;11.27;;;13.70;92.80;;;;;;5095574;28;20254;-87
2021/06/21 04:39:42;;;;;;;16.97;10.07;;;13.70;92.80;;;;;;5113804;28;20212;-87
2021/06/21 04:42:08;;;;;;;11.73;10.53;;;13.70;92.80;;;;;;5095938;28;20273;-87
2021/06/21 04:44:33;;;;;;;17.17;10.53;;;13.70;92.90;;;;;;5095653;28;20550;-87
2021/06/21 04:46:59;;;;;;;13.20;9.67;;;13.60;92.90;;;;;;5112486;28;20677;-87
2021/06/21 04:49:25;;;;;;;14.20;9.20;;;13.60;92.90;;;;;;5113718;28;20681;-87
2021/06/21 04:51:51;;;;;;;12.90;9.00;;;13.60;92.90;;;;;;5078626;28;20572;-86
2021/06/21 04:54:18;;;;;;;15.40;9.30;;;13.50;92.90;;;;;;5095507;28;20637;-86
2021/06/21 04:56:43;;;;;;;18.47;9.60;;;13.50;93.00;;;;;;5095240;28;20206;-86
2021/06/21 04:59:09;;;;;;;15.63;10.20;;;13.50;93.10;;;;;;5095493;28;20230;-87
2021/06/21 05:01:35;;;;;;;18.00;9.60;;;13.50;93.10;;;;;;5113695;28;20257;-87
2021/06/21 05:04:01;;;;;;;14.27;9.80;;;13.60;93.20;;;;;;5113620;28;20212;-86
2021/06/21 05:06:34;;;;;;;12.13;9.77;;;13.60;93.30;;;;;;5113662;28;20189;-87
2021/06/21 05:09:00;;;;;;;11.93;9.10;;;13.60;93.30;;;;;;5095311;28;20212;-86
2021/06/21 05:11:27;;;;;;;11.37;9.83;;;13.60;93.40;;;;;;5095362;28;20178;-86
2021/06/21 05:13:53;;;;;;;17.77;10.10;;;13.60;93.40;;;;;;5113632;28;20262;-87
2021/06/21 05:16:19;;;;;;;11.97;9.80;;;13.60;93.40;;;;;;5095268;28;20712;-86
2021/06/21 05:18:45;;;;;;;17.47;11.17;;;13.60;93.50;;;;;;5095287;28;20189;-86
2021/06/21 05:21:10;;;;;;;16.17;10.20;;;13.60;93.40;;;;;;5095334;28;20686;-86
2021/06/21 05:23:36;;;;;;;11.73;9.53;;;13.60;93.40;;;;;;5112282;28;20689;-86
2021/06/21 05:26:02;;;;;;;12.60;10.73;;;13.60;93.40;;;;;;5113435;28;20166;-86
2021/06/21 05:28:27;;;;;;;13.53;11.00;;;13.60;93.50;;;;;;5113383;28;20264;-87
2021/06/21 05:30:53;;;;;;;13.20;9.40;;;13.70;93.60;;;;;;5095259;28;20234;-86
2021/06/21 05:33:18;;;;;;;11.27;8.97;;;13.70;93.50;;;;;;5113403;28;20181;-86
2021/06/21 05:35:44;;;;;;;11.83;9.10;;;13.70;93.60;;;;;;5095203;28;20181;-87
2021/06/21 05:38:09;;;;;;;12.73;9.50;;;13.70;93.60;;;;;;5095052;28;20190;-87
2021/06/21 05:40:35;;;;;;;10.17;9.03;;;13.70;93.60;;;;;;5095158;28;20222;-87
2021/06/21 05:43:01;;;;;;;16.57;10.23;;;13.80;93.70;;;;;;5095096;28;20201;-87
2021/06/21 05:45:27;;;;;;;11.13;9.57;;;13.80;93.70;;;;;;5095037;28;20211;-87
2021/06/21 05:47:53;;;;;;;14.87;9.67;;;13.80;93.70;;;;;;5094978;28;20201;-86
2021/06/21 05:50:18;;;;;;;11.30;8.30;;;13.80;93.70;;;;;;5094911;28;20205;-88
2021/06/21 05:52:47;;;;;;;11.90;8.87;;;13.80;93.70;;;;;;5097246;28;20170;-87
2021/06/21 05:55:13;;;;;;;15.97;9.10;;;13.80;93.70;;;;;;5117020;28;20166;-86
2021/06/21 05:57:38;;;;;;;11.53;8.83;;;13.80;93.70;;;;;;5116922;28;20302;-86
2021/06/21 06:00:06;;;;;;;10.13;8.93;;;13.90;93.80;;;;;;5098629;28;20214;-87
2021/06/21 06:02:32;;;;;;;12.00;8.63;;;13.80;93.70;;;;;;5116777;28;20170;-87
2021/06/21 06:04:57;;;;;;;11.37;8.60;;;13.90;93.80;;;;;;5098594;28;20227;-87
2021/06/21 06:07:24;;;;;;;9.97;8.97;;;13.90;93.80;;;;;;5098433;28;20190;-88
2021/06/21 06:09:50;;;;;;;9.80;8.50;;;14.00;93.80;;;;;;5116655;28;20242;-87
2021/06/21 06:12:17;;;;;;;10.37;8.70;;;13.90;93.80;;;;;;5098488;28;20541;-87
2021/06/21 06:14:43;;;;;;;10.27;8.13;;;14.00;93.90;;;;;;5098406;28;20170;-87
2021/06/21 06:17:09;;;;;;;11.20;8.07;;;14.10;93.90;;;;;;5098344;28;20194;-87
2021/06/21 06:19:34;;;;;;;8.20;6.97;;;14.20;93.90;;;;;;5116713;28;20173;-87
2021/06/21 06:22:00;;;;;;;10.93;7.03;;;14.20;93.70;;;;;;5098239;28;20261;-87
2021/06/21 06:24:26;;;;;;;11.37;6.60;;;14.20;93.70;;;;;;5098283;28;20267;-87
2021/06/21 06:26:52;;;;;;;9.20;6.53;;;14.20;93.70;;;;;;5098073;28;20189;-87
2021/06/21 06:29:19;;;;;;;8.70;7.30;;;14.20;93.60;;;;;;5116321;28;20198;-87
2021/06/21 06:31:47;;;;;;;10.97;7.27;;;14.30;93.50;;;;;;5098081;28;20203;-86
2021/06/21 06:34:14;;;;;;;8.43;7.17;;;14.20;93.40;;;;;;5098061;28;20193;-87
2021/06/21 06:36:40;;;;;;;7.90;6.90;;;14.30;93.40;;;;;;5097891;28;20681;-86
2021/06/21 06:39:06;;;;;;;7.73;6.40;;;14.30;93.40;;;;;;5097895;28;20174;-86
2021/06/21 06:41:32;;;;;;;7.13;5.87;;;14.20;93.30;;;;;;5097880;28;20174;-86
2021/06/21 06:43:58;;;;;;;7.13;5.50;;;14.30;93.50;;;;;;5097886;28;20544;-86
2021/06/21 06:46:23;;;;;;;8.77;5.93;;;14.30;93.30;;;;;;5097800;28;20184;-86
2021/06/21 06:48:49;;;;;;;9.50;5.90;;;14.20;93.30;;;;;;5115900;28;20270;-86
2021/06/21 06:51:15;;;;;;;7.63;5.87;;;14.30;93.30;;;;;;5097708;28;20625;-86
2021/06/21 06:53:52;;;;;;;10.10;5.50;;;14.30;93.30;;;;;;5098397;28;20177;-86
2021/06/21 06:59:03;;;;;;;5.73;5.23;;;14.30;93.20;;;;;;5115871;28;20161;-86
2021/06/21 07:01:29;;;;;;;12.90;6.23;;;14.30;93.30;;;;;;5116022;28;20172;-86
2021/06/21 07:03:55;;;;;;;6.67;5.93;;;14.30;93.30;;;;;;5097199;28;20257;-86
2021/06/21 07:06:21;;;;;;;7.37;6.07;;;14.30;93.50;;;;;;5097390;28;20178;-85
2021/06/21 07:08:47;;;;;;;8.03;5.70;;;14.30;93.50;;;;;;5115666;28;20280;-86
2021/06/21 07:11:17;;;;;;;9.97;6.23;;;14.30;93.50;;;;;;5115538;28;20162;-86
2021/06/21 07:13:43;;;;;;;7.77;6.00;;;14.30;93.50;;;;;;5115824;28;20173;-86
2021/06/21 07:16:09;;;;;;;10.27;5.50;;;14.30;93.60;;;;;;5098210;28;20181;-86
2021/06/21 07:18:35;;;;;;;6.87;6.17;;;14.30;93.60;;;;;;5097078;28;20169;-86
2021/06/21 07:21:01;;;;;;;6.63;5.33;;;14.40;93.60;;;;;;5097106;28;20315;-86
2021/06/21 07:23:26;;;;;;;7.57;5.90;;;14.40;93.60;;;;;;5115286;28;20222;-87
2021/06/21 07:25:52;;;;;;;5.77;5.27;;;14.50;93.70;;;;;;5115487;28;20158;-87
2021/06/21 07:28:17;;;;;;;10.57;5.70;;;14.50;93.60;;;;;;5115213;28;20272;-87
2021/06/21 07:30:44;;;;;;;6.33;5.23;;;14.60;93.60;;;;;;5096902;28;20296;-87
2021/06/21 07:33:11;;;;;;;6.73;4.93;;;14.70;93.60;;;;;;5096809;28;20205;-87
2021/06/21 07:35:40;;;;;;;5.03;4.60;;;14.70;93.60;;;;;;5115068;28;20257;-87
2021/06/21 07:38:06;;;;;;;5.03;4.53;;;14.70;93.40;;;;;;5096790;28;20635;-87
2021/06/21 07:40:31;;;;;;;5.03;4.10;;;14.70;93.40;;;;;;5114994;28;20170;-87
2021/06/21 07:42:57;;;;;;;7.50;5.00;;;14.70;93.30;;;;;;5115007;28;20275;-87
2021/06/21 07:45:22;;;;;;;4.73;4.23;;;14.80;93.20;;;;;;5114863;28;20219;-86
2021/06/21 07:47:48;;;;;;;4.83;4.00;;;14.80;93.10;;;;;;5114627;28;20198;-85
2021/06/21 07:50:14;;;;;;;4.73;4.03;;;14.80;93.10;;;;;;5114602;28;20189;-86
2021/06/21 07:52:39;;;;;;;4.63;3.37;;;14.90;93.10;;;;;;5096450;28;20205;-86
2021/06/21 07:55:06;;;;;;;4.97;3.03;;;14.90;92.90;;;;;;5114585;28;20249;-87
2021/06/21 07:57:31;;;;;;;4.93;3.30;;;14.90;92.80;;;;;;5096116;28;20213;-87
2021/06/21 07:59:57;;;;;;;3.97;2.90;;;14.90;92.70;;;;;;5114871;28;20165;-87
2021/06/21 08:02:23;;;;;;;3.17;2.87;;;15.00;92.70;;;;;;5114584;28;20177;-87
2021/06/21 08:04:50;;;;;;;5.00;3.07;;;15.00;92.60;;;;;;5096305;28;20177;-87
2021/06/21 08:07:16;;;;;;;3.97;2.83;;;15.00;92.60;;;;;;5114459;28;20181;-86
2021/06/21 08:09:42;;;;;;;4.27;2.40;;;15.00;92.70;;;;;;5096028;28;20292;-86
2021/06/21 08:12:08;;;;;;;3.43;2.53;;;14.90;92.70;;;;;;5096233;28;20262;-86
2021/06/21 08:14:33;;;;;;;4.87;2.50;;;15.00;92.70;;;;;;5096064;28;20178;-87
2021/06/21 08:16:59;;;;;;;4.77;1.90;;;15.00;92.70;;;;;;5096017;28;20200;-87
2021/06/21 08:19:25;;;;;;;2.47;1.90;;;14.90;92.70;;;;;;5095945;28;20180;-87
2021/06/21 08:21:50;;;;;;;5.13;2.43;;;14.90;92.80;;;;;;5114216;28;20174;-86
2021/06/21 08:24:16;;;;;;;1.97;1.70;;;14.80;92.80;;;;;;5095918;28;20177;-87
2021/06/21 08:26:42;;;;;;;2.20;2.00;;;14.80;92.90;;;;;;5114059;28;20193;-87
2021/06/21 08:29:08;;;;;;;3.83;2.00;;;14.80;92.90;;;;;;5114046;28;20277;-87
2021/06/21 08:31:34;;;;;;;2.17;1.97;;;14.80;93.00;;;;;;5095953;28;20170;-86
2021/06/21 08:34:00;;;;;;;1.90;1.80;;;14.80;93.00;;;;;;5095750;28;20256;-86
2021/06/21 08:36:26;;;;;;;3.07;1.77;;;14.80;93.10;;;;;;5095740;28;20201;-87
2021/06/21 08:38:51;;;;;;;2.67;1.90;;;14.80;93.30;;;;;;5114318;28;20189;-87
2021/06/21 08:41:19;;;;;;;2.03;1.70;;;14.90;93.50;;;;;;5113929;28;20170;-87
2021/06/21 08:43:45;;;;;;;3.97;1.97;;;14.90;93.50;;;;;;5095661;28;20177;-86
2021/06/21 08:46:11;;;;;;;2.57;1.73;;;14.90;93.50;;;;;;5095520;28;20173;-86
2021/06/21 08:48:41;;;;;;;2.00;1.80;;;15.00;93.50;;;;;;5095531;28;20230;-86
2021/06/21 08:51:07;;;;;;;1.70;1.60;;;15.00;93.50;;;;;;5095594;28;20622;-86
2021/06/21 08:53:32;;;;;;;2.10;1.40;;;15.00;93.30;;;;;;5095596;28;20177;-86
2021/06/21 08:55:58;;;;;;;1.50;1.40;;;15.00;93.30;;;;;;5095521;28;20602;-86
2021/06/21 08:58:24;;;;;;;4.70;1.60;;;15.00;93.30;;;;;;5095319;28;20304;-86
2021/06/21 09:00:50;;;;;;;1.53;1.43;;;15.00;93.40;;;;;;5095584;28;20178;-86
2021/06/21 09:03:16;;;;;;;2.87;1.20;;;15.00;93.30;;;;;;5095341;28;20170;-86
2021/06/21 09:05:43;;;;;;;1.27;1.10;;;14.90;93.20;;;;;;5095377;28;20178;-86
2021/06/21 09:08:09;;;;;;;1.83;1.20;;;14.90;93.30;;;;;;5095334;28;20202;-86
2021/06/21 09:10:37;;;;;;;2.23;1.60;;;14.90;93.20;;;;;;5113539;28;20201;-86
2021/06/21 09:13:04;;;;;;;1.67;1.57;;;14.80;93.40;;;;;;5113540;28;20201;-85
2021/06/21 09:15:32;;;;;;;3.30;1.73;;;15.00;93.50;;;;;;5113504;28;20202;-86
2021/06/21 09:17:58;;;;;;;2.83;2.43;;;15.00;93.40;;;;;;5113468;28;20196;-86
2021/06/21 09:20:24;;;;;;;2.07;1.60;;;15.10;93.60;;;;;;5113482;28;20170;-85
2021/06/21 09:22:56;;;;;;;1.93;1.50;;;15.20;93.60;;;;;;5095267;28;20268;-86
2021/06/21 09:25:25;;;;;;;1.33;1.23;;;15.20;93.40;;;;;;5095251;28;20657;-86
2021/06/21 09:27:53;;;;;;;1.10;1.10;;;15.20;93.10;;;;;;5117472;28;20186;-85
2021/06/21 09:30:20;;;;;;;6.00;1.53;;;15.20;93.00;;;;;;5099184;28;20194;-85
2021/06/21 09:32:48;;;;;;;2.50;1.40;;;15.20;93.10;;;;;;5117402;28;20211;-85
2021/06/21 09:35:41;;;;;;;1.50;1.10;;;15.30;93.30;;;;;;5117430;28;20176;-86
2021/06/21 09:38:15;;;;;;;1.37;1.13;;;15.30;93.20;;;;;;5114000;28;20221;-85
2021/06/21 09:40:46;;;;;;;2.17;1.43;;;15.20;92.80;;;;;;5099034;28;20181;-85
2021/06/21 09:43:30;;;;;;;1.77;1.60;;;15.30;93.00;;;;;;5099004;28;20185;-87
2021/06/21 09:46:11;;;;;;;1.80;1.70;;;15.40;93.10;;;;;;5099893;28;20170;-85
2021/06/21 09:48:45;;;;;;;1.67;1.50;;;15.30;92.70;;;;;;5117407;28;20158;-85
2021/06/21 09:51:22;;;;;;;3.87;1.33;;;15.40;92.90;;;;;;5098911;28;20174;-86
2021/06/21 09:54:08;;;;;;;1.40;1.20;;;15.50;93.00;;;;;;5098782;28;20221;-85
2021/06/21 09:56:36;;;;;;;1.30;1.20;;;15.30;92.50;;;;;;5116970;28;20748;-85
2021/06/21 09:59:18;;;;;;;2.77;1.50;;;15.40;92.60;;;;;;5117221;28;20580;-85
2021/06/21 10:01:58;;;;;;;2.10;1.60;;;15.40;92.50;;;;;;5116913;28;20169;-85
2021/06/21 10:04:25;;;;;;;1.60;1.50;;;15.40;92.50;;;;;;5116854;28;20162;-85
2021/06/21 10:06:50;;;;;;;2.67;1.60;;;15.20;92.00;;;;;;5098455;28;20285;-85
2021/06/21 10:09:16;;;;;;;1.80;1.70;;;15.20;92.10;;;;;;5098377;28;20354;-85
2021/06/21 10:11:46;;;;;;;1.90;1.77;;;15.20;92.60;;;;;;5117025;28;20568;-85
2021/06/21 10:14:16;;;;;;;2.10;1.90;;;15.30;92.80;;;;;;5116681;28;20249;-85
2021/06/21 10:16:44;;;;;;;1.60;1.50;;;15.30;92.90;;;;;;5116497;28;20227;-86
2021/06/21 10:19:11;;;;;;;1.80;1.67;;;15.20;92.30;;;;;;5098228;28;20668;-85
2021/06/21 10:21:39;;;;;;;2.27;1.57;;;15.20;92.50;;;;;;5116572;28;20174;-85
2021/06/21 10:24:06;;;;;;;2.00;1.90;;;15.30;92.80;;;;;;5098100;28;20205;-85
2021/06/21 10:26:32;;;;;;;1.67;1.57;;;15.30;92.60;;;;;;5116321;28;20186;-85
2021/06/21 10:28:58;;;;;;;1.50;1.40;;;15.20;92.20;;;;;;5098011;28;20756;-85
2021/06/21 10:31:29;;;;;;;1.43;1.33;;;15.30;92.30;;;;;;5098021;28;20261;-85
2021/06/21 10:34:00;;;;;;;3.13;1.60;;;15.20;92.20;;;;;;5098051;28;20162;-84
2021/06/21 10:36:52;;;;;;;1.80;1.70;;;15.20;92.40;;;;;;5116244;28;20158;-84
2021/06/21 10:39:20;;;;;;;1.90;1.67;;;15.20;92.30;;;;;;5097417;28;20211;-84
2021/06/21 10:42:04;;;;;;;2.27;1.70;;;15.10;92.20;;;;;;5116069;28;20257;-84
2021/06/21 10:44:47;;;;;;;1.60;1.50;;;15.20;92.70;;;;;;5116407;28;20307;-84
2021/06/21 10:47:31;;;;;;;3.10;1.70;;;15.30;92.20;;;;;;5115995;28;20204;-84
2021/06/21 10:50:09;;;;;;;1.60;1.50;;;15.30;92.40;;;;;;5115839;28;20205;-84
2021/06/21 10:52:39;;;;;;;3.03;1.53;;;15.30;92.10;;;;;;5116133;28;20170;-84
2021/06/21 10:57:49;;;;;;;1.47;1.37;;;15.20;91.90;;;;;;5116030;28;20206;-84
2021/06/21 11:00:17;;;;;;;1.93;1.33;;;15.20;92.20;;;;;;5098081;28;20182;-84
2021/06/21 11:02:43;;;;;;;1.50;1.40;;;15.20;92.00;;;;;;5098262;28;20182;-84
2021/06/21 11:05:10;;;;;;;2.57;1.70;;;15.20;92.10;;;;;;5116131;28;20185;-84
2021/06/21 11:07:36;;;;;;;1.80;1.70;;;15.20;92.30;;;;;;5116394;28;20230;-85
2021/06/21 11:10:06;;;;;;;1.93;1.77;;;15.30;92.40;;;;;;5097504;28;20677;-84
2021/06/21 11:12:37;;;;;;;1.77;1.67;;;15.20;92.20;;;;;;5099234;28;20629;-84
2021/06/21 11:15:03;;;;;;;1.73;1.60;;;15.20;92.00;;;;;;5098374;28;20162;-84
2021/06/21 11:17:30;;;;;;;2.77;1.83;;;15.30;92.20;;;;;;5115938;28;20190;-84
2021/06/21 11:19:57;;;;;;;2.30;1.70;;;15.40;92.30;;;;;;5115998;28;20173;-84
2021/06/21 11:22:42;;;;;;;2.00;1.90;;;15.40;92.00;;;;;;5115727;28;20174;-84
2021/06/21 11:25:27;;;;;;;1.80;1.70;;;15.40;92.10;;;;;;5097727;28;20216;-84
2021/06/21 11:27:53;;;;;;;4.03;1.60;;;15.50;92.00;;;;;;5115185;28;20688;-85
2021/06/21 11:30:28;;;;;;;1.87;1.60;;;15.60;92.00;;;;;;5115113;28;20284;-84
2021/06/21 11:33:01;;;;;;;3.10;1.50;;;15.50;91.90;;;;;;5115515;28;20601;-84
2021/06/21 11:35:45;;;;;;;2.13;1.80;;;15.50;92.20;;;;;;5097054;28;20265;-84
2021/06/21 11:38:23;;;;;;;1.70;1.60;;;15.40;92.10;;;;;;5096715;28;20571;-84
2021/06/21 11:41:08;;;;;;;3.17;1.77;;;15.50;92.20;;;;;;5097016;28;20177;-85
2021/06/21 11:43:47;;;;;;;3.27;1.73;;;15.40;92.10;;;;;;5115591;28;20165;-84
2021/06/21 11:46:35;;;;;;;2.00;1.80;;;15.40;92.40;;;;;;5115266;28;20245;-84
2021/06/21 11:49:07;;;;;;;2.10;1.70;;;15.40;92.20;;;;;;5096221;28;20205;-84
2021/06/21 11:51:34;;;;;;;2.00;1.80;;;15.40;92.20;;;;;;5096698;28;20259;-85
2021/06/21 11:54:01;;;;;;;2.60;1.70;;;15.40;92.40;;;;;;5096673;28;20296;-84
2021/06/21 11:56:28;;;;;;;1.90;1.60;;;15.30;92.00;;;;;;5096777;28;20706;-85
2021/06/21 11:58:55;;;;;;;2.47;1.70;;;15.30;91.90;;;;;;5115152;28;20177;-84
2021/06/21 12:01:26;;;;;;;1.50;1.40;;;15.30;91.70;;;;;;5096915;28;20178;-85
2021/06/21 12:04:00;;;;;;;1.30;1.20;;;15.40;92.00;;;;;;5114927;28;20169;-84
2021/06/21 12:06:29;;;;;;;2.87;1.80;;;15.40;91.70;;;;;;5114614;28;20157;-85
2021/06/21 12:08:55;;;;;;;1.60;1.50;;;15.40;91.70;;;;;;5096340;28;20202;-84
2021/06/21 12:11:23;;;;;;;1.83;1.47;;;15.40;91.60;;;;;;5114483;28;20226;-84
2021/06/21 12:14:00;;;;;;;3.50;1.70;;;15.30;91.40;;;;;;5096681;28;20177;-84
2021/06/21 12:16:28;;;;;;;1.77;1.60;;;15.30;91.60;;;;;;5114470;28;20166;-84
2021/06/21 12:18:57;;;;;;;3.37;1.70;;;15.30;91.70;;;;;;5096423;28;20203;-84
2021/06/21 12:21:39;;;;;;;4.80;1.80;;;15.30;91.70;;;;;;5114852;28;20640;-85
2021/06/21 12:24:29;;;;;;;1.80;1.70;;;15.20;91.30;;;;;;5096577;28;20170;-85
2021/06/21 12:26:57;;;;;;;2.33;1.60;;;15.30;91.60;;;;;;5114371;28;20190;-84
2021/06/21 12:29:24;;;;;;;1.73;1.63;;;15.20;91.30;;;;;;5114428;28;20251;-84
2021/06/21 12:32:09;;;;;;;3.33;2.80;;;15.20;91.50;;;;;;5096358;28;20178;-85
2021/06/21 12:34:52;;;;;;;1.77;1.67;;;15.30;91.50;;;;;;5114423;28;20169;-84
2021/06/21 12:37:31;;;;;;;2.23;2.03;;;15.30;91.40;;;;;;5114413;28;20627;-84
2021/06/21 12:40:12;;;;;;;3.50;2.40;;;15.20;91.50;;;;;;5114744;28;20150;-85
2021/06/21 12:42:38;;;;;;;2.20;1.83;;;15.20;91.70;;;;;;5095799;28;20166;-85
2021/06/21 12:45:14;;;;;;;5.70;2.27;;;15.30;91.60;;;;;;5095989;28;20597;-84
2021/06/21 12:47:53;;;;;;;5.63;2.20;;;15.30;91.60;;;;;;5095871;28;20204;-84
2021/06/21 12:50:20;;;;;;;5.17;2.00;;;15.40;91.60;;;;;;5095828;28;20638;-84
2021/06/21 12:52:48;;;;;;;2.53;2.30;;;15.30;91.10;;;;;;5114129;28;20174;-84
2021/06/21 12:55:16;;;;;;;3.03;2.07;;;15.40;91.40;;;;;;5095836;28;20177;-84